LKMT/OSR METAR and TAF weather

Enter ICAO airport designator
Station Type Date Time Source
LKMT METAR 2022/01/29 00:30 UTC NOAA

LKMT 290030Z 34003KT 300V010 CAVOK M01/M05 Q1028 NOSIG


Station Type Date Time Source
LKMT Decoded METAR 2022/01/29 00:30 UTC NOAA

Ostrava / Mosnov, Czech Republic (LKMT) 49-41N 018-07E 256M
Jan 28, 2022 - 07:30 PM EST / 2022.01.29 0030 UTC
Wind: from the NNW (340 degrees) at 3 MPH (3 KT) (direction variable):0
Visibility: greater than 7 mile(s):0
Temperature: 30 F (-1 C)
Dew Point: 23 F (-5 C)
Relative Humidity: 74%
Pressure (altimeter): 30.36 in. Hg (1028 hPa)
ob: LKMT 290030Z 34003KT 300V010 CAVOK M01/M05 Q1028 NOSIG
cycle: 0

Station Type Date Time Source
LKMT TAF 2022/01/28 19:14 UTC NOAA

TAF
AMD LKMT 281906Z 2819/3000 33012KT 9999 BKN033
TEMPO 2819/2820 3000 SHRASN BKN004 PROB30
TEMPO 2819/2820 35016G28KT 1400 SHSN BKN002
TEMPO 2820/2906 SCT040
BECMG 2902/2904 21010KT
BECMG 2908/2910 22020KT
TEMPO 2910/3000 22020G32KT
TEMPO 2912/2918 4000 SNRA BKN009
TEMPO 2918/3000 5000 RA BKN013

Example: see airport list